createdAt,value
2023-05-23T00:00:26.794Z,99.90
2023-05-23T00:02:55.368Z,99.90
2023-05-23T00:05:24.161Z,99.90
2023-05-23T00:07:52.423Z,99.90
2023-05-23T00:10:20.864Z,99.90
2023-05-23T00:12:50.516Z,99.90
2023-05-23T00:15:19.143Z,99.90
2023-05-23T00:17:48.428Z,99.90
2023-05-23T00:20:16.953Z,99.90
2023-05-23T00:22:48.273Z,99.90
2023-05-23T00:25:16.645Z,99.90
2023-05-23T00:27:44.894Z,99.90
2023-05-23T00:30:14.980Z,99.90
2023-05-23T00:32:43.613Z,99.90
2023-05-23T00:35:12.041Z,99.90
2023-05-23T00:37:40.573Z,99.90
2023-05-23T00:40:10.171Z,99.90
2023-05-23T00:42:38.614Z,99.90
2023-05-23T00:45:08.195Z,99.90
2023-05-23T00:47:37.959Z,99.90
2023-05-23T00:50:08.634Z,99.90
2023-05-23T00:52:37.716Z,99.90
2023-05-23T00:55:08.525Z,99.90
2023-05-23T00:57:40.367Z,99.90
2023-05-23T01:00:10.652Z,99.90
2023-05-23T01:02:45.146Z,99.90
2023-05-23T01:05:17.669Z,99.90
2023-05-23T01:07:46.790Z,99.90
2023-05-23T01:10:16.246Z,99.90
2023-05-23T01:12:53.911Z,99.90
2023-05-23T01:15:26.770Z,99.90
2023-05-23T01:18:04.099Z,99.90
2023-05-23T01:20:37.196Z,99.90
2023-05-23T01:24:02.587Z,99.90
2023-05-23T01:26:41.820Z,99.90
2023-05-23T01:29:15.792Z,99.90
2023-05-23T01:31:46.994Z,99.90
2023-05-23T01:34:17.109Z,99.90
2023-05-23T01:36:46.714Z,99.90
2023-05-23T01:39:15.052Z,99.90
2023-05-23T01:41:43.574Z,99.90
2023-05-23T01:44:13.365Z,99.90
2023-05-23T01:46:42.293Z,99.90
2023-05-23T01:49:14.967Z,99.90
2023-05-23T01:51:44.060Z,99.90
2023-05-23T01:54:14.399Z,99.90
2023-05-23T01:56:43.087Z,99.90
2023-05-23T01:59:13.306Z,99.90
2023-05-23T02:01:42.664Z,99.90
2023-05-23T02:04:11.170Z,99.90
2023-05-23T02:06:39.479Z,99.90
2023-05-23T02:09:08.458Z,99.90
2023-05-23T02:11:36.992Z,99.90
2023-05-23T02:14:05.826Z,99.90
2023-05-23T02:16:36.654Z,99.90
2023-05-23T02:19:05.437Z,99.90
2023-05-23T02:21:35.583Z,99.90
2023-05-23T02:24:05.258Z,99.90
2023-05-23T02:26:33.622Z,99.90
2023-05-23T02:29:01.942Z,99.90
2023-05-23T02:31:30.735Z,99.90
2023-05-23T02:34:00.487Z,99.90
2023-05-23T02:36:28.909Z,99.90
2023-05-23T02:38:57.527Z,99.90
2023-05-23T02:41:25.979Z,99.90
2023-05-23T02:43:54.550Z,99.90
2023-05-23T02:46:23.248Z,99.90
2023-05-23T02:48:51.708Z,99.90
2023-05-23T02:51:21.621Z,99.90
2023-05-23T02:53:50.035Z,99.90
2023-05-23T02:56:18.917Z,99.90
2023-05-23T02:58:47.307Z,99.90
2023-05-23T03:01:16.224Z,99.90
2023-05-23T03:03:44.620Z,99.90
2023-05-23T03:06:14.633Z,99.90
2023-05-23T03:08:44.835Z,99.90
2023-05-23T03:11:13.168Z,99.90
2023-05-23T03:13:41.479Z,99.90
2023-05-23T03:16:09.865Z,99.90
2023-05-23T03:18:38.151Z,99.90
2023-05-23T03:21:06.582Z,99.90
2023-05-23T03:23:35.044Z,99.90
2023-05-23T03:26:06.776Z,99.90
2023-05-23T03:28:35.175Z,99.90
2023-05-23T03:31:03.506Z,99.90
2023-05-23T03:33:32.739Z,99.90
2023-05-23T03:36:01.085Z,99.90
2023-05-23T03:38:29.478Z,99.90
2023-05-23T03:40:57.839Z,99.90
2023-05-23T03:43:28.017Z,99.90
2023-05-23T03:45:56.418Z,99.90
2023-05-23T03:48:24.708Z,99.90
2023-05-23T03:50:53.457Z,99.90
2023-05-23T03:53:22.623Z,99.90
2023-05-23T03:55:50.971Z,99.90
2023-05-23T03:58:19.276Z,99.90
2023-05-23T04:00:53.054Z,99.90
2023-05-23T04:03:22.506Z,99.90
2023-05-23T04:05:52.052Z,99.90
2023-05-23T04:08:22.151Z,99.90
2023-05-23T04:10:52.596Z,99.90
2023-05-23T04:13:23.230Z,99.90
2023-05-23T04:15:53.323Z,99.90
2023-05-23T04:18:22.166Z,99.90
2023-05-23T04:20:50.951Z,99.90
2023-05-23T04:23:19.581Z,99.90
2023-05-23T04:25:51.610Z,99.90
2023-05-23T04:28:27.782Z,99.90
2023-05-23T04:30:58.488Z,99.90
2023-05-23T04:33:30.525Z,99.90
2023-05-23T04:35:58.962Z,99.90
2023-05-23T04:38:27.782Z,99.90
2023-05-23T04:40:58.021Z,99.90
2023-05-23T04:43:46.082Z,99.90
2023-05-23T04:46:36.550Z,99.90
2023-05-23T04:49:14.546Z,99.90
2023-05-23T04:51:43.112Z,99.90
2023-05-23T04:54:27.964Z,99.90
2023-05-23T04:56:57.584Z,99.90
2023-05-23T04:59:27.764Z,99.90
2023-05-23T05:01:57.500Z,99.90
2023-05-23T05:04:26.130Z,99.90
2023-05-23T05:06:54.578Z,99.90
2023-05-23T05:09:23.089Z,99.90
2023-05-23T05:11:52.583Z,99.90
2023-05-23T05:14:21.953Z,99.90
2023-05-23T05:16:50.794Z,99.90
2023-05-23T05:19:20.976Z,99.90
2023-05-23T05:21:49.488Z,99.90
2023-05-23T05:24:17.753Z,99.90
2023-05-23T05:26:47.654Z,99.90
2023-05-23T05:29:16.101Z,99.90
2023-05-23T05:31:45.345Z,99.90
2023-05-23T05:34:13.739Z,99.90
2023-05-23T05:36:47.894Z,99.90
2023-05-23T05:39:18.151Z,99.90
2023-05-23T05:41:46.527Z,99.90
2023-05-23T05:44:15.909Z,99.90
2023-05-23T05:46:45.224Z,99.90
2023-05-23T05:49:13.591Z,99.90
2023-05-23T05:51:44.684Z,99.90
2023-05-23T05:54:14.358Z,99.90
2023-05-23T05:56:43.382Z,99.90
2023-05-23T05:59:12.473Z,99.90
2023-05-23T06:01:42.251Z,99.90
2023-05-23T06:04:10.709Z,99.90
2023-05-23T06:06:39.934Z,99.90
2023-05-23T06:09:10.707Z,99.90
2023-05-23T06:11:41.108Z,99.90
2023-05-23T06:14:09.827Z,99.90
2023-05-23T06:16:42.376Z,99.90
2023-05-23T06:19:10.913Z,99.90
2023-05-23T06:21:40.826Z,99.90
2023-05-23T06:24:13.017Z,99.90
2023-05-23T06:26:42.826Z,99.90
2023-05-23T06:29:11.131Z,99.90
2023-05-23T06:31:39.720Z,99.90
2023-05-23T06:34:08.088Z,99.90
2023-05-23T06:36:36.483Z,99.90
2023-05-23T06:39:04.958Z,99.90
2023-05-23T06:41:34.685Z,99.90
2023-05-23T06:44:03.067Z,99.90
2023-05-23T06:46:32.948Z,99.90
2023-05-23T06:49:13.584Z,99.90
2023-05-23T06:51:43.281Z,99.90
2023-05-23T06:54:12.677Z,99.90
2023-05-23T06:56:42.467Z,99.90
2023-05-23T06:59:11.058Z,99.90
2023-05-23T07:01:40.462Z,99.90
2023-05-23T07:04:09.356Z,99.90
2023-05-23T07:06:39.898Z,99.90
2023-05-23T07:09:11.810Z,99.90
2023-05-23T07:11:42.491Z,99.90
2023-05-23T07:14:11.787Z,99.90
2023-05-23T07:16:46.180Z,99.90
2023-05-23T07:19:14.767Z,99.90
2023-05-23T07:21:49.566Z,99.90
2023-05-23T07:24:19.835Z,99.90
2023-05-23T07:26:50.586Z,99.90
2023-05-23T07:29:19.330Z,99.90
2023-05-23T07:31:49.579Z,99.90
2023-05-23T07:34:18.883Z,99.90
2023-05-23T07:36:57.483Z,99.90
2023-05-23T07:39:28.167Z,99.90
2023-05-23T07:42:00.538Z,99.90
2023-05-23T07:44:30.129Z,99.90
2023-05-23T07:46:58.782Z,99.90
2023-05-23T07:49:27.728Z,99.90
2023-05-23T07:51:56.588Z,99.90
2023-05-23T07:54:24.938Z,99.90
2023-05-23T07:56:57.548Z,99.90
2023-05-23T07:59:30.114Z,99.90
2023-05-23T08:01:59.313Z,99.90
2023-05-23T08:04:28.463Z,99.90
2023-05-23T08:09:36.893Z,99.90
2023-05-23T08:12:06.119Z,99.90
2023-05-23T08:14:49.921Z,99.90
2023-05-23T08:17:46.502Z,99.90
2023-05-23T08:20:14.983Z,99.90
2023-05-23T08:22:43.703Z,99.90
2023-05-23T08:25:12.100Z,99.90
2023-05-23T08:27:42.099Z,99.90
2023-05-23T08:30:41.030Z,99.90
2023-05-23T08:33:09.752Z,99.90
2023-05-23T08:35:41.673Z,99.90
2023-05-23T08:38:12.252Z,99.90
2023-05-23T08:40:52.217Z,99.90
2023-05-23T08:43:22.022Z,99.90
2023-05-23T08:45:53.570Z,99.90
2023-05-23T08:48:24.440Z,99.90
2023-05-23T08:50:54.675Z,99.90
2023-05-23T08:53:28.161Z,99.90
2023-05-23T08:56:04.484Z,99.90
2023-05-23T08:58:43.071Z,99.90
2023-05-23T09:01:14.838Z,99.90
2023-05-23T09:03:43.564Z,99.90
2023-05-23T09:06:27.537Z,99.90
2023-05-23T09:08:56.259Z,99.90
2023-05-23T09:11:26.439Z,99.90
2023-05-23T09:13:56.041Z,99.90
2023-05-23T09:16:33.919Z,99.90
2023-05-23T09:19:12.498Z,99.90
2023-05-23T09:21:44.788Z,99.90
2023-05-23T09:24:42.675Z,99.90
2023-05-23T09:27:12.079Z,99.90
2023-05-23T09:29:40.959Z,99.40
2023-05-23T09:32:14.431Z,99.90
2023-05-23T09:34:43.896Z,99.90
2023-05-23T09:37:19.349Z,99.90
2023-05-23T09:39:49.446Z,99.80
2023-05-23T09:42:22.627Z,98.60
2023-05-23T09:44:51.342Z,97.90
2023-05-23T09:47:21.078Z,97.40
2023-05-23T09:49:49.612Z,97.60
2023-05-23T09:52:20.116Z,96.20
2023-05-23T09:54:48.884Z,96.10
2023-05-23T09:57:17.794Z,97.50
2023-05-23T09:59:54.086Z,96.20
2023-05-23T10:02:49.739Z,95.60
2023-05-23T10:05:32.084Z,95.50
2023-05-23T10:08:03.146Z,95.20
2023-05-23T10:10:34.081Z,95.80
2023-05-23T10:13:05.278Z,95.40
2023-05-23T10:15:40.130Z,95.20
2023-05-23T10:18:17.656Z,95.80
2023-05-23T10:20:50.870Z,96.10
2023-05-23T10:23:21.232Z,95.40
2023-05-23T10:25:50.093Z,96.00
2023-05-23T10:28:18.514Z,95.60
2023-05-23T10:30:47.954Z,96.30
2023-05-23T10:33:18.517Z,95.90
2023-05-23T10:35:54.798Z,96.20
2023-05-23T10:38:34.085Z,95.60
2023-05-23T10:41:11.066Z,96.20
2023-05-23T10:43:46.219Z,96.50
2023-05-23T10:46:15.269Z,96.60
2023-05-23T10:48:45.954Z,96.30
2023-05-23T10:51:15.460Z,95.60
2023-05-23T10:53:46.550Z,96.30
2023-05-23T10:56:23.439Z,95.00
2023-05-23T10:58:55.012Z,95.40
2023-05-23T11:01:24.287Z,96.10
2023-05-23T11:03:56.009Z,95.10
2023-05-23T11:06:33.445Z,95.40
2023-05-23T11:09:07.767Z,95.50
2023-05-23T11:11:55.084Z,95.40
2023-05-23T11:14:34.868Z,94.60
2023-05-23T11:17:17.116Z,95.00
2023-05-23T11:20:00.866Z,95.90
2023-05-23T11:22:30.736Z,94.50
2023-05-23T11:25:00.245Z,94.30
2023-05-23T11:27:30.374Z,93.70
2023-05-23T11:30:04.117Z,93.60
2023-05-23T11:32:33.758Z,93.80
2023-05-23T11:35:04.483Z,93.70
2023-05-23T11:37:33.012Z,93.70
2023-05-23T11:40:21.603Z,93.60
2023-05-23T11:42:50.566Z,93.20
2023-05-23T11:45:21.006Z,93.00
2023-05-23T11:47:49.408Z,93.80
2023-05-23T11:50:20.481Z,92.70
2023-05-23T11:52:51.790Z,92.60
2023-05-23T11:55:21.338Z,92.80
2023-05-23T11:57:50.313Z,93.10
2023-05-23T12:00:19.937Z,93.40
2023-05-23T12:02:49.068Z,92.70
2023-05-23T12:05:18.926Z,91.70
2023-05-23T12:07:48.941Z,92.30
2023-05-23T12:10:19.896Z,92.70
2023-05-23T12:12:48.354Z,92.60
2023-05-23T12:15:16.700Z,92.40
2023-05-23T12:17:46.301Z,92.50
2023-05-23T12:20:15.204Z,92.10
2023-05-23T12:22:44.949Z,92.70
2023-05-23T12:25:13.325Z,91.30
2023-05-23T12:27:44.233Z,92.40
2023-05-23T12:30:16.455Z,93.00
2023-05-23T12:32:47.394Z,92.60
2023-05-23T12:35:16.681Z,92.80
2023-05-23T12:37:48.566Z,92.90
2023-05-23T12:40:18.173Z,93.70
2023-05-23T12:42:51.681Z,92.60
2023-05-23T12:45:20.338Z,93.10
2023-05-23T12:47:49.456Z,91.30
2023-05-23T12:50:19.261Z,91.10
2023-05-23T12:52:48.937Z,91.30
2023-05-23T12:55:17.324Z,92.10
2023-05-23T12:57:45.631Z,90.80
2023-05-23T13:00:15.121Z,90.20
2023-05-23T13:02:43.502Z,89.40
2023-05-23T13:05:12.369Z,88.20
2023-05-23T13:07:41.269Z,90.10
2023-05-23T13:10:12.099Z,90.00
2023-05-23T13:12:40.477Z,89.70
2023-05-23T13:15:10.079Z,89.60
2023-05-23T13:17:38.553Z,88.30
2023-05-23T13:20:09.427Z,87.60
2023-05-23T13:22:37.828Z,88.30
2023-05-23T13:25:07.393Z,88.50
2023-05-23T13:27:37.135Z,86.30
2023-05-23T13:30:07.411Z,88.70
2023-05-23T13:32:35.969Z,88.30
2023-05-23T13:35:04.569Z,88.80
2023-05-23T13:37:32.994Z,88.80
2023-05-23T13:40:04.435Z,87.80
2023-05-23T13:42:33.075Z,85.80
2023-05-23T13:45:02.713Z,85.80
2023-05-23T13:47:31.243Z,86.60
2023-05-23T13:49:59.522Z,87.80
2023-05-23T13:52:27.886Z,85.30
2023-05-23T13:54:56.182Z,87.40
2023-05-23T13:57:24.529Z,83.90
2023-05-23T13:59:52.879Z,83.80
2023-05-23T14:02:22.791Z,85.20
2023-05-23T14:04:51.421Z,84.80
2023-05-23T14:07:20.505Z,84.60
2023-05-23T14:09:48.915Z,86.40
2023-05-23T14:12:17.221Z,84.80
2023-05-23T14:14:45.627Z,82.70
2023-05-23T14:17:17.103Z,82.30
2023-05-23T14:19:47.508Z,81.60
2023-05-23T14:22:16.141Z,81.00
2023-05-23T14:24:44.411Z,81.80
2023-05-23T14:27:12.831Z,82.60
2023-05-23T14:29:41.623Z,82.50
2023-05-23T14:32:10.077Z,82.60
2023-05-23T14:34:38.417Z,84.30
2023-05-23T14:37:08.181Z,85.10
2023-05-23T14:39:36.899Z,83.20
2023-05-23T14:42:05.902Z,81.60
2023-05-23T14:44:34.466Z,83.40
2023-05-23T14:47:02.796Z,85.00
2023-05-23T14:49:31.084Z,85.40
2023-05-23T14:51:59.413Z,82.80
2023-05-23T14:54:29.077Z,84.90
2023-05-23T14:56:57.882Z,82.50
2023-05-23T14:59:26.197Z,82.80
2023-05-23T15:01:54.825Z,83.10
2023-05-23T15:04:24.253Z,84.70
2023-05-23T15:06:52.860Z,84.90
2023-05-23T15:09:21.769Z,86.60
2023-05-23T15:11:51.601Z,85.90
2023-05-23T15:14:19.940Z,86.50
2023-05-23T15:16:48.972Z,87.20
2023-05-23T15:19:17.573Z,85.10
2023-05-23T15:21:51.088Z,84.30
2023-05-23T15:24:20.203Z,85.50
2023-05-23T15:26:48.855Z,80.50
2023-05-23T15:29:19.722Z,84.00
2023-05-23T15:31:48.246Z,82.60
2023-05-23T15:34:16.731Z,82.60
2023-05-23T15:36:45.083Z,81.10
2023-05-23T15:39:13.606Z,80.00
2023-05-23T15:41:41.945Z,82.00
2023-05-23T15:44:12.077Z,81.70
2023-05-23T15:46:44.017Z,83.10
2023-05-23T15:49:25.227Z,82.90
2023-05-23T15:51:55.704Z,82.00
2023-05-23T15:54:24.112Z,81.70
2023-05-23T15:56:52.468Z,82.30
2023-05-23T15:59:21.146Z,82.20
2023-05-23T16:01:50.935Z,84.10
2023-05-23T16:04:19.469Z,84.00
2023-05-23T16:06:47.867Z,84.40
2023-05-23T16:09:16.280Z,84.00
2023-05-23T16:11:44.554Z,84.90
2023-05-23T16:14:12.975Z,85.50
2023-05-23T16:16:41.336Z,86.20
2023-05-23T16:19:11.243Z,86.60
2023-05-23T16:21:39.619Z,82.90
2023-05-23T16:24:08.122Z,85.20
2023-05-23T16:26:36.476Z,84.50
2023-05-23T16:29:04.760Z,85.10
2023-05-23T16:31:33.076Z,85.20
2023-05-23T16:34:01.721Z,82.90
2023-05-23T16:36:31.422Z,82.40
2023-05-23T16:38:59.755Z,83.50
2023-05-23T16:41:28.110Z,82.90
2023-05-23T16:43:56.565Z,83.60
2023-05-23T16:46:24.896Z,84.20
2023-05-23T16:48:53.295Z,84.30
2023-05-23T16:51:21.699Z,83.70
2023-05-23T16:53:51.591Z,83.80
2023-05-23T16:56:19.914Z,85.10
2023-05-23T16:58:48.285Z,85.20
2023-05-23T17:01:17.167Z,85.10
2023-05-23T17:03:45.682Z,85.70
2023-05-23T17:06:14.343Z,86.80
2023-05-23T17:08:42.725Z,86.70
2023-05-23T17:11:12.660Z,86.50
2023-05-23T17:13:41.458Z,83.40
2023-05-23T17:16:11.054Z,84.60
2023-05-23T17:18:39.419Z,84.30
2023-05-23T17:21:07.764Z,84.00
2023-05-23T17:23:36.115Z,85.10
2023-05-23T17:26:04.411Z,84.60
2023-05-23T17:28:34.515Z,85.60
2023-05-23T17:31:02.822Z,86.10
2023-05-23T17:33:31.148Z,85.90
2023-05-23T17:36:00.553Z,86.70
2023-05-23T17:38:29.032Z,87.20
2023-05-23T17:40:57.373Z,88.80
2023-05-23T17:43:25.772Z,89.20
2023-05-23T17:45:57.967Z,87.30
2023-05-23T17:48:38.710Z,87.20
2023-05-23T17:51:14.664Z,87.20
2023-05-23T17:53:43.357Z,88.10
2023-05-23T17:56:12.051Z,88.40
2023-05-23T17:58:42.579Z,87.30
2023-05-23T18:01:14.421Z,88.60
2023-05-23T18:03:42.810Z,89.10
2023-05-23T18:06:11.119Z,89.70
2023-05-23T18:08:39.458Z,88.90
2023-05-23T18:11:07.903Z,88.70
2023-05-23T18:13:36.189Z,88.80
2023-05-23T18:16:04.553Z,89.60
2023-05-23T18:18:34.629Z,89.60
2023-05-23T18:21:03.483Z,90.10
2023-05-23T18:23:31.979Z,90.30
2023-05-23T18:26:00.397Z,91.10
2023-05-23T18:28:28.725Z,91.30
2023-05-23T18:30:57.207Z,90.60
2023-05-23T18:33:27.644Z,90.80
2023-05-23T18:35:57.507Z,91.10
2023-05-23T18:38:27.509Z,91.10
2023-05-23T18:40:55.935Z,91.30
2023-05-23T18:43:24.322Z,91.60
2023-05-23T18:45:52.644Z,91.90
2023-05-23T18:48:21.635Z,92.10
2023-05-23T18:50:49.969Z,92.40
2023-05-23T18:53:19.696Z,92.00
2023-05-23T18:55:48.138Z,92.00
2023-05-23T18:58:16.586Z,91.70
2023-05-23T19:00:45.297Z,92.00
2023-05-23T19:03:14.595Z,92.20
2023-05-23T19:05:43.120Z,92.20
2023-05-23T19:08:11.397Z,92.40
2023-05-23T19:10:41.861Z,92.90
2023-05-23T19:13:10.575Z,92.40
2023-05-23T19:15:38.928Z,93.10
2023-05-23T19:18:07.748Z,92.90
2023-05-23T19:20:36.279Z,92.90
2023-05-23T19:23:04.994Z,93.10
2023-05-23T19:25:33.265Z,93.00
2023-05-23T19:28:03.086Z,93.40
2023-05-23T19:30:31.465Z,93.70
2023-05-23T19:33:01.375Z,93.40
2023-05-23T19:35:29.837Z,93.40
2023-05-23T19:37:58.295Z,93.50
2023-05-23T19:40:26.617Z,93.50
2023-05-23T19:42:55.007Z,93.80
2023-05-23T19:45:24.858Z,93.70
2023-05-23T19:47:53.214Z,94.00
2023-05-23T19:50:22.542Z,94.20
2023-05-23T19:52:51.367Z,94.40
2023-05-23T19:55:19.795Z,94.30
2023-05-23T19:57:48.314Z,94.40
2023-05-23T20:00:17.532Z,94.40
2023-05-23T20:02:47.386Z,94.40
2023-05-23T20:05:16.388Z,94.40
2023-05-23T20:07:44.724Z,94.60
2023-05-23T20:10:14.129Z,94.70
2023-05-23T20:12:42.579Z,95.00
2023-05-23T20:15:11.960Z,95.00
2023-05-23T20:17:40.506Z,95.20
2023-05-23T20:20:11.680Z,94.90
2023-05-23T20:22:40.161Z,94.90
2023-05-23T20:25:10.227Z,94.80
2023-05-23T20:27:38.607Z,95.00
2023-05-23T20:30:08.424Z,94.80
2023-05-23T20:32:36.948Z,94.70
2023-05-23T20:35:06.005Z,95.00
2023-05-23T20:37:35.819Z,95.10
2023-05-23T20:40:04.253Z,94.90
2023-05-23T20:42:32.764Z,95.00
2023-05-23T20:45:01.247Z,95.10
2023-05-23T20:47:30.257Z,95.40
2023-05-23T20:49:58.675Z,95.40
2023-05-23T20:52:27.024Z,95.60
2023-05-23T20:54:56.826Z,95.80
2023-05-23T20:57:25.214Z,95.80
2023-05-23T20:59:53.627Z,96.00
2023-05-23T21:02:22.002Z,96.20
2023-05-23T21:04:50.659Z,96.30
2023-05-23T21:07:19.010Z,96.00
2023-05-23T21:09:47.339Z,95.90
2023-05-23T21:12:17.082Z,95.90
2023-05-23T21:14:46.237Z,96.00
2023-05-23T21:17:15.966Z,95.80
2023-05-23T21:19:44.350Z,95.70
2023-05-23T21:22:12.891Z,95.70
2023-05-23T21:24:41.394Z,95.70
2023-05-23T21:27:09.759Z,95.80
2023-05-23T21:29:39.519Z,95.90
2023-05-23T21:32:07.971Z,95.80
2023-05-23T21:34:36.311Z,95.80
2023-05-23T21:37:04.990Z,95.80
2023-05-23T21:39:47.056Z,96.30
2023-05-23T21:42:19.726Z,96.90
2023-05-23T21:44:49.617Z,97.00
2023-05-23T21:47:18.205Z,97.30
2023-05-23T21:49:46.703Z,97.10
2023-05-23T21:52:15.119Z,96.90
2023-05-23T21:54:43.520Z,97.10
2023-05-23T21:57:11.929Z,97.20
2023-05-23T21:59:41.503Z,97.50
2023-05-23T22:02:11.447Z,97.90
2023-05-23T22:04:39.862Z,98.00
2023-05-23T22:07:08.196Z,97.80
2023-05-23T22:09:36.604Z,98.00
2023-05-23T22:12:05.450Z,98.00
2023-05-23T22:14:33.947Z,97.90
2023-05-23T22:17:04.250Z,98.00
2023-05-23T22:19:34.144Z,98.00
2023-05-23T22:22:02.564Z,98.20
2023-05-23T22:24:31.262Z,98.10
2023-05-23T22:27:00.730Z,98.00
2023-05-23T22:29:29.044Z,98.20
2023-05-23T22:31:57.592Z,98.60
2023-05-23T22:34:26.160Z,98.50
2023-05-23T22:36:57.548Z,98.40
2023-05-23T22:39:27.433Z,98.40
2023-05-23T22:41:55.787Z,98.50
2023-05-23T22:44:24.128Z,98.60
2023-05-23T22:46:53.094Z,98.60
2023-05-23T22:49:22.312Z,98.60
2023-05-23T22:51:50.729Z,98.60
2023-05-23T22:54:20.556Z,98.70
2023-05-23T22:56:48.983Z,98.70
2023-05-23T22:59:17.331Z,98.90
2023-05-23T23:01:46.414Z,98.90
2023-05-23T23:04:14.884Z,99.20
2023-05-23T23:06:44.445Z,99.20
2023-05-23T23:09:12.859Z,99.50
2023-05-23T23:11:42.660Z,99.70
2023-05-23T23:14:11.288Z,99.70
2023-05-23T23:16:39.744Z,99.70
2023-05-23T23:19:08.074Z,99.80
2023-05-23T23:21:37.668Z,99.80
2023-05-23T23:24:07.918Z,99.80
2023-05-23T23:26:36.459Z,99.90
2023-05-23T23:29:06.349Z,99.90
2023-05-23T23:31:34.712Z,99.90
2023-05-23T23:34:03.118Z,99.90
2023-05-23T23:36:31.659Z,99.90
2023-05-23T23:39:00.135Z,99.90
2023-05-23T23:41:28.477Z,99.90
2023-05-23T23:43:56.821Z,99.90
2023-05-23T23:46:26.900Z,99.90
2023-05-23T23:48:55.370Z,99.90
2023-05-23T23:51:23.643Z,99.90
2023-05-23T23:53:53.442Z,99.90
2023-05-23T23:56:24.699Z,99.90
2023-05-23T23:58:53.148Z,99.90
